Time;durP1;ratioP1;P1;durP2;ratioP2;P2;SDS_P1;SDS_P2;PMS_P1;PMS_P2;Temp;Humidity;BMP_temperature;BMP_pressure;BME280_temperature;BME280_humidity;BME280_pressure;Samples;Min_cycle;Max_cycle;Signal;HPM_P1;HPM_P2
2023/02/10 00:01:08;;;;;;;15.80;9.10;;;2.20;99.90;;;;;;4864018;29;20403;-93
2023/02/10 00:03:35;;;;;;;15.13;9.10;;;2.20;99.90;;;;;;4863912;29;20044;-92
2023/02/10 00:06:02;;;;;;;15.18;8.95;;;2.20;99.90;;;;;;4879750;29;20089;-93
2023/02/10 00:08:28;;;;;;;14.52;8.75;;;2.20;99.90;;;;;;4863730;29;20088;-93
2023/02/10 00:10:58;;;;;;;16.02;9.30;;;2.20;99.90;;;;;;4880263;29;20111;-93
2023/02/10 00:13:24;;;;;;;12.32;7.90;;;2.20;99.90;;;;;;4863370;29;20045;-93
2023/02/10 00:15:50;;;;;;;16.33;8.38;;;2.20;99.90;;;;;;4864651;29;20090;-93
2023/02/10 00:18:15;;;;;;;12.90;7.97;;;2.20;99.90;;;;;;4864574;29;20041;-92
2023/02/10 00:20:41;;;;;;;13.82;8.30;;;2.10;99.90;;;;;;4864892;29;20049;-93
2023/02/10 00:23:07;;;;;;;12.52;8.00;;;2.10;99.90;;;;;;4864554;29;20131;-93
2023/02/10 00:25:36;;;;;;;15.15;8.00;;;2.20;99.90;;;;;;4878063;23;20143;-93
2023/02/10 00:28:02;;;;;;;14.98;8.32;;;2.10;99.90;;;;;;4897924;29;20052;-94
2023/02/10 00:30:30;;;;;;;13.68;8.40;;;2.10;99.90;;;;;;4883194;29;20052;-94
2023/02/10 00:32:56;;;;;;;11.00;7.72;;;2.10;99.90;;;;;;4887125;29;20139;-94
2023/02/10 00:35:22;;;;;;;15.60;7.63;;;2.10;99.90;;;;;;4905213;29;20110;-93
2023/02/10 00:37:48;;;;;;;13.68;8.15;;;2.00;99.90;;;;;;4904318;29;20535;-93
2023/02/10 00:40:13;;;;;;;15.25;8.00;;;2.00;99.90;;;;;;4888125;29;20481;-93
2023/02/10 00:42:39;;;;;;;14.98;8.20;;;2.00;99.90;;;;;;4890137;29;20047;-93
2023/02/10 00:45:17;;;;;;;14.38;7.55;;;2.00;99.90;;;;;;4904610;29;20090;-93
2023/02/10 00:47:46;;;;;;;16.13;7.65;;;2.00;99.90;;;;;;4905547;29;20080;-94
2023/02/10 00:50:12;;;;;;;14.55;7.95;;;2.00;99.90;;;;;;4889616;29;20047;-93
2023/02/10 00:52:41;;;;;;;14.80;8.25;;;2.00;99.90;;;;;;4922068;29;20269;-94
2023/02/10 00:55:12;;;;;;;16.73;8.35;;;1.90;99.90;;;;;;4913357;29;20047;-94
2023/02/10 00:57:41;;;;;;;12.82;7.32;;;2.00;99.90;;;;;;4888762;29;20040;-91
2023/02/10 01:00:13;;;;;;;13.57;7.60;;;1.90;99.90;;;;;;4885702;29;20171;-92
2023/02/10 01:02:42;;;;;;;12.75;7.05;;;1.90;99.90;;;;;;4898302;29;20044;-93
2023/02/10 01:05:19;;;;;;;12.25;7.22;;;1.90;99.90;;;;;;4920647;29;20048;-92
2023/02/10 01:07:48;;;;;;;14.27;6.93;;;1.90;99.90;;;;;;4889836;29;20100;-92
2023/02/10 01:10:19;;;;;;;12.18;6.47;;;1.90;99.90;;;;;;4903049;29;20120;-92
2023/02/10 01:12:48;;;;;;;12.88;7.30;;;1.90;99.90;;;;;;4897211;29;20055;-93
2023/02/10 01:15:22;;;;;;;21.45;7.45;;;1.90;99.90;;;;;;4889866;29;20041;-93
2023/02/10 01:17:48;;;;;;;13.35;7.05;;;1.80;99.90;;;;;;4900812;29;20482;-93
2023/02/10 01:20:17;;;;;;;12.02;6.97;;;1.90;99.90;;;;;;4888262;29;20093;-95
2023/02/10 01:22:43;;;;;;;12.55;6.47;;;1.80;99.90;;;;;;4905010;29;20127;-94
2023/02/10 01:25:15;;;;;;;15.38;6.78;;;1.80;99.90;;;;;;4913052;29;20127;-93
2023/02/10 01:27:46;;;;;;;17.77;6.50;;;1.80;99.90;;;;;;4851894;29;20060;-95
2023/02/10 01:30:18;;;;;;;22.05;7.63;;;1.80;99.90;;;;;;4855803;29;20467;-94
2023/02/10 01:32:44;;;;;;;18.77;7.05;;;1.80;99.90;;;;;;4869027;29;20494;-93
2023/02/10 01:35:19;;;;;;;11.23;6.28;;;1.80;99.90;;;;;;4865079;29;20097;-94
2023/02/10 01:37:48;;;;;;;15.15;6.05;;;1.80;99.90;;;;;;4889811;29;20041;-93
2023/02/10 01:40:16;;;;;;;13.63;6.18;;;1.80;99.90;;;;;;4888803;29;20125;-93
2023/02/10 01:42:48;;;;;;;22.52;7.10;;;1.80;99.90;;;;;;4888247;29;20037;-93
2023/02/10 01:45:23;;;;;;;16.48;6.78;;;1.80;99.90;;;;;;4871821;29;20205;-93
2023/02/10 01:47:51;;;;;;;17.50;6.53;;;1.80;99.90;;;;;;4887391;29;20044;-93
2023/02/10 01:50:30;;;;;;;13.07;6.50;;;1.80;99.90;;;;;;4869219;29;20053;-94
2023/02/10 01:52:58;;;;;;;20.17;6.75;;;1.80;99.90;;;;;;4854945;29;20451;-94
2023/02/10 01:55:29;;;;;;;21.25;7.03;;;1.80;99.90;;;;;;4885148;29;20040;-93
2023/02/10 01:57:55;;;;;;;14.48;6.20;;;1.80;99.90;;;;;;4866388;29;20128;-94
2023/02/10 02:00:24;;;;;;;17.52;6.72;;;1.80;99.90;;;;;;4865828;29;20041;-95
2023/02/10 02:02:57;;;;;;;13.77;6.30;;;1.80;99.90;;;;;;4868074;29;20068;-94
2023/02/10 02:05:33;;;;;;;21.20;6.43;;;1.80;99.90;;;;;;4867854;29;20105;-96
2023/02/10 02:08:07;;;;;;;11.65;5.70;;;1.70;99.90;;;;;;4867137;29;20073;-94
2023/02/10 02:11:01;;;;;;;;;;;1.80;99.90;;;;;;4868642;29;20048;-92
2023/02/10 02:13:32;;;;;;;12.55;5.78;;;1.70;99.90;;;;;;4857449;29;19923;-93
2023/02/10 02:16:25;;;;;;;14.60;6.05;;;1.70;99.90;;;;;;4887461;29;20049;-93
2023/02/10 02:19:31;;;;;;;18.05;6.53;;;1.70;99.90;;;;;;4883596;29;20040;-94
2023/02/10 02:22:26;;;;;;;18.60;6.00;;;1.70;99.90;;;;;;4869009;29;20430;-93
2023/02/10 02:25:21;;;;;;;16.00;6.38;;;1.70;99.90;;;;;;4878340;29;20045;-94
2023/02/10 02:28:30;;;;;;;12.95;5.60;;;1.70;99.90;;;;;;4873642;29;20049;-94
2023/02/10 02:31:23;;;;;;;11.02;5.85;;;1.70;99.90;;;;;;4851445;29;20124;-94
2023/02/10 02:34:16;;;;;;;16.20;5.68;;;1.60;99.90;;;;;;4869195;29;20513;-94
2023/02/10 02:36:55;;;;;;;16.40;6.03;;;1.60;99.90;;;;;;4864326;29;20466;-93
2023/02/10 02:39:21;;;;;;;17.63;5.82;;;1.70;99.90;;;;;;4864267;29;20041;-93
2023/02/10 02:42:21;;;;;;;14.75;6.22;;;1.60;99.90;;;;;;4863764;29;20046;-93
2023/02/10 02:44:59;;;;;;;11.23;5.20;;;1.60;99.90;;;;;;4816198;29;20061;-93
2023/02/10 02:47:52;;;;;;;15.77;6.35;;;1.60;99.90;;;;;;4878757;29;20041;-93
2023/02/10 02:50:24;;;;;;;13.48;5.75;;;1.60;99.90;;;;;;4866191;29;20057;-93
2023/02/10 02:52:55;;;;;;;17.58;5.93;;;1.60;99.90;;;;;;4856469;29;20102;-93
2023/02/10 02:55:49;;;;;;;11.25;5.13;;;1.60;99.90;;;;;;4864778;29;20511;-93
2023/02/10 02:58:54;;;;;;;10.68;5.13;;;1.60;99.90;;;;;;4882929;29;20055;-93
2023/02/10 03:01:28;;;;;;;12.90;5.55;;;1.60;99.90;;;;;;4880213;29;20060;-93
2023/02/10 03:03:56;;;;;;;10.43;5.00;;;1.60;99.90;;;;;;4864422;29;20037;-93
2023/02/10 03:06:22;;;;;;;11.15;5.05;;;1.50;99.90;;;;;;4866485;29;20104;-93
2023/02/10 03:08:48;;;;;;;11.60;5.78;;;1.50;99.90;;;;;;4882436;29;20073;-93
2023/02/10 03:11:14;;;;;;;10.63;5.20;;;1.50;99.90;;;;;;4871363;29;20060;-94
2023/02/10 03:13:39;;;;;;;8.68;4.85;;;1.50;99.90;;;;;;4867183;29;20045;-94
2023/02/10 03:16:09;;;;;;;12.85;5.30;;;1.50;99.90;;;;;;4874127;29;20418;-93
2023/02/10 03:18:53;;;;;;;22.92;6.57;;;1.50;99.90;;;;;;4890339;29;20117;-93
2023/02/10 03:21:18;;;;;;;;;;;1.50;99.90;;;;;;4868981;29;20049;-93
2023/02/10 03:23:44;;;;;;;12.27;4.72;;;1.50;99.90;;;;;;4863942;29;19924;-93
2023/02/10 03:26:10;;;;;;;8.98;4.57;;;1.50;99.90;;;;;;4888746;29;20060;-94
2023/02/10 03:28:36;;;;;;;11.77;5.20;;;1.50;99.90;;;;;;4900186;29;20085;-93
2023/02/10 03:31:06;;;;;;;12.98;5.32;;;1.50;99.90;;;;;;4890955;29;20049;-93
2023/02/10 03:33:32;;;;;;;8.68;4.53;;;1.40;99.90;;;;;;4883198;29;20077;-93
2023/02/10 03:36:04;;;;;;;8.35;4.53;;;1.50;99.90;;;;;;4902616;29;20084;-93
2023/02/10 03:38:33;;;;;;;11.68;4.90;;;1.50;99.90;;;;;;4883431;29;20053;-93
2023/02/10 03:41:01;;;;;;;12.63;4.85;;;1.40;99.90;;;;;;4881858;29;20444;-94
2023/02/10 03:43:27;;;;;;;11.02;4.55;;;1.40;99.90;;;;;;4898005;29;20083;-93
2023/02/10 03:45:58;;;;;;;10.25;5.10;;;1.40;99.90;;;;;;4901422;29;20044;-93
2023/02/10 03:48:26;;;;;;;14.38;5.05;;;1.40;99.90;;;;;;4896492;29;20052;-94
2023/02/10 03:50:52;;;;;;;17.35;5.72;;;1.40;99.90;;;;;;4896452;29;20045;-94
2023/02/10 03:53:17;;;;;;;14.77;5.07;;;1.40;99.90;;;;;;4904128;29;20116;-93
2023/02/10 03:55:43;;;;;;;17.67;6.20;;;1.40;99.90;;;;;;4900565;29;20041;-93
2023/02/10 03:58:08;;;;;;;10.55;4.68;;;1.40;99.90;;;;;;4899593;29;20051;-93
2023/02/10 04:00:34;;;;;;;15.68;5.85;;;1.40;99.90;;;;;;4900253;29;20105;-93
2023/02/10 04:05:45;;;;;;;20.73;6.68;;;1.40;99.90;;;;;;4900100;29;20136;-93
2023/02/10 04:08:11;;;;;;;15.00;4.93;;;1.40;99.90;;;;;;4888153;29;20044;-93
2023/02/10 04:10:37;;;;;;;15.80;6.10;;;1.50;99.90;;;;;;4883033;29;20051;-92
2023/02/10 04:13:03;;;;;;;15.80;6.22;;;1.50;99.90;;;;;;4899734;29;20044;-92
2023/02/10 04:15:29;;;;;;;18.40;5.85;;;1.50;99.90;;;;;;4900964;29;20043;-94
2023/02/10 04:17:57;;;;;;;18.30;6.80;;;1.50;99.90;;;;;;4878811;29;20079;-94
2023/02/10 04:20:32;;;;;;;16.85;6.20;;;1.50;99.90;;;;;;4885906;29;20137;-93
2023/02/10 04:23:00;;;;;;;21.27;6.97;;;1.50;99.90;;;;;;4872624;29;20037;-93
2023/02/10 04:25:26;;;;;;;15.63;6.45;;;1.50;99.90;;;;;;4878770;29;20485;-92
2023/02/10 04:28:00;;;;;;;15.60;6.63;;;1.50;99.90;;;;;;4897192;29;20041;-93
2023/02/10 04:30:29;;;;;;;14.70;6.00;;;1.50;99.90;;;;;;4872411;29;20127;-93
2023/02/10 04:32:55;;;;;;;11.15;5.00;;;1.50;99.90;;;;;;4886717;29;20095;-93
2023/02/10 04:35:23;;;;;;;12.98;5.00;;;1.50;99.90;;;;;;4896176;29;20518;-93
2023/02/10 04:37:52;;;;;;;12.13;5.70;;;1.50;99.90;;;;;;4869371;29;20118;-92
2023/02/10 04:40:17;;;;;;;15.32;5.97;;;1.50;99.90;;;;;;4884792;29;20052;-93
2023/02/10 04:42:46;;;;;;;12.38;4.90;;;1.40;99.90;;;;;;4868134;29;20472;-92
2023/02/10 04:45:15;;;;;;;12.43;5.60;;;1.40;99.90;;;;;;4873467;29;20523;-92
2023/02/10 04:47:47;;;;;;;10.27;4.90;;;1.40;99.90;;;;;;4872691;29;20133;-93
2023/02/10 04:50:22;;;;;;;13.95;6.18;;;1.40;99.90;;;;;;4883882;29;20048;-92
2023/02/10 04:52:57;;;;;;;18.52;5.68;;;1.40;99.90;;;;;;4848800;29;20144;-94
2023/02/10 04:55:28;;;;;;;21.65;7.10;;;1.40;99.90;;;;;;4866106;29;20046;-96
2023/02/10 04:57:53;;;;;;;16.02;5.82;;;1.50;99.90;;;;;;4850363;29;20053;-96
2023/02/10 05:00:19;;;;;;;12.32;5.97;;;1.50;99.90;;;;;;4864298;29;20140;-96
2023/02/10 05:02:51;;;;;;;12.30;5.57;;;1.40;99.90;;;;;;4851838;29;20068;-96
2023/02/10 05:05:25;;;;;;;21.70;6.97;;;1.50;99.90;;;;;;4875852;29;20048;-95
2023/02/10 05:08:14;;;;;;;12.98;5.03;;;1.40;99.90;;;;;;4861926;29;20073;-96
2023/02/10 05:10:40;;;;;;;11.40;5.45;;;1.40;99.90;;;;;;4885199;29;20193;-94
2023/02/10 05:13:06;;;;;;;11.82;5.15;;;1.40;99.90;;;;;;4871617;29;20561;-92
2023/02/10 05:15:31;;;;;;;11.90;4.82;;;1.40;99.90;;;;;;4882527;29;20053;-93
2023/02/10 05:17:57;;;;;;;12.00;4.82;;;1.40;99.90;;;;;;4866089;29;20093;-93
2023/02/10 05:20:23;;;;;;;12.20;5.43;;;1.40;99.90;;;;;;4883133;29;20049;-93
2023/02/10 05:22:54;;;;;;;12.30;5.03;;;1.40;99.90;;;;;;4866737;29;20139;-92
2023/02/10 05:25:20;;;;;;;20.13;6.82;;;1.50;99.90;;;;;;4865656;29;20447;-91
2023/02/10 05:27:55;;;;;;;12.98;5.10;;;1.40;99.90;;;;;;4864874;29;20105;-91
2023/02/10 05:30:26;;;;;;;9.80;4.65;;;1.40;99.90;;;;;;4882153;29;20386;-91
2023/02/10 05:32:57;;;;;;;11.27;4.68;;;1.40;99.90;;;;;;4880962;29;20059;-91
2023/02/10 05:35:26;;;;;;;13.48;5.70;;;1.40;99.90;;;;;;4881534;29;20500;-91
2023/02/10 05:37:58;;;;;;;9.63;4.63;;;1.40;99.90;;;;;;4865896;29;20087;-91
2023/02/10 05:40:30;;;;;;;8.60;4.53;;;1.40;99.90;;;;;;4881752;29;20076;-90
2023/02/10 05:42:59;;;;;;;12.32;4.80;;;1.40;99.90;;;;;;4882174;29;20052;-91
2023/02/10 05:45:24;;;;;;;13.68;5.50;;;1.30;99.90;;;;;;4865307;29;20045;-91
2023/02/10 05:47:51;;;;;;;18.05;6.15;;;1.30;99.90;;;;;;4865097;29;20408;-91
2023/02/10 05:50:17;;;;;;;18.80;7.78;;;1.30;99.90;;;;;;4914549;23;20058;-91
2023/02/10 05:52:43;;;;;;;13.75;6.05;;;1.30;99.90;;;;;;4847244;29;20067;-91
2023/02/10 05:55:12;;;;;;;20.17;8.07;;;1.30;99.90;;;;;;4862636;29;20091;-90
2023/02/10 05:57:38;;;;;;;16.65;7.00;;;1.30;99.90;;;;;;4863498;29;20054;-90
2023/02/10 06:00:06;;;;;;;9.23;4.55;;;1.40;99.90;;;;;;4862574;29;20045;-91
2023/02/10 06:02:32;;;;;;;14.93;6.05;;;1.40;99.90;;;;;;4862266;29;20050;-91
2023/02/10 06:04:57;;;;;;;14.27;6.55;;;1.30;99.90;;;;;;4862115;29;20499;-92
2023/02/10 06:07:23;;;;;;;10.57;5.63;;;1.40;99.90;;;;;;4846553;29;20049;-91
2023/02/10 06:09:48;;;;;;;14.35;6.32;;;1.40;99.90;;;;;;4846005;29;20049;-91
2023/02/10 06:12:14;;;;;;;15.55;6.53;;;1.40;99.90;;;;;;4846041;29;20052;-90
2023/02/10 06:14:40;;;;;;;17.90;6.07;;;1.30;99.90;;;;;;4870971;23;20038;-91
2023/02/10 06:17:09;;;;;;;25.98;7.32;;;1.40;99.90;;;;;;4881194;29;20059;-91
2023/02/10 06:19:40;;;;;;;15.20;6.88;;;1.30;99.90;;;;;;4881177;29;20040;-91
2023/02/10 06:22:07;;;;;;;17.75;7.40;;;1.40;99.90;;;;;;4865247;29;20443;-91
2023/02/10 06:24:33;;;;;;;18.00;6.78;;;1.40;99.90;;;;;;4864006;29;20413;-91
2023/02/10 06:26:59;;;;;;;19.40;6.65;;;1.30;99.90;;;;;;4864585;29;20139;-90
2023/02/10 06:29:25;;;;;;;16.23;6.63;;;1.30;99.90;;;;;;4862955;29;20047;-91
2023/02/10 06:31:53;;;;;;;13.10;5.80;;;1.30;99.90;;;;;;4863444;29;20076;-91
2023/02/10 06:34:18;;;;;;;20.35;7.88;;;1.40;99.90;;;;;;4863880;29;20470;-91
2023/02/10 06:36:44;;;;;;;17.20;6.75;;;1.40;99.90;;;;;;4864068;29;20052;-89
2023/02/10 06:39:12;;;;;;;14.57;6.15;;;1.40;99.90;;;;;;4881199;29;20049;-90
2023/02/10 06:41:41;;;;;;;15.98;7.70;;;1.40;99.90;;;;;;4864371;29;20060;-90
2023/02/10 06:44:07;;;;;;;18.27;7.63;;;1.40;99.90;;;;;;4864730;29;20084;-90
2023/02/10 06:46:45;;;;;;;12.52;5.35;;;1.40;99.90;;;;;;4880706;29;20048;-91
2023/02/10 06:49:10;;;;;;;25.63;8.02;;;1.30;99.90;;;;;;4881593;29;20044;-91
2023/02/10 06:51:36;;;;;;;10.10;5.65;;;1.40;99.90;;;;;;4880431;29;20059;-91
2023/02/10 06:54:04;;;;;;;15.70;7.30;;;1.40;99.90;;;;;;4863963;29;20056;-90
2023/02/10 06:56:29;;;;;;;22.60;7.53;;;1.40;99.90;;;;;;4863183;29;20045;-91
2023/02/10 06:58:55;;;;;;;17.30;7.88;;;1.40;99.90;;;;;;4862904;29;20060;-91
2023/02/10 07:01:21;;;;;;;14.90;7.18;;;1.40;99.90;;;;;;4863534;29;20041;-90
2023/02/10 07:03:46;;;;;;;12.48;6.57;;;1.40;99.90;;;;;;4880602;29;20045;-90
2023/02/10 07:06:12;;;;;;;12.60;5.60;;;1.40;99.90;;;;;;4862613;29;20052;-90
2023/02/10 07:08:40;;;;;;;17.85;6.80;;;1.40;99.90;;;;;;4863826;29;20096;-91
2023/02/10 07:11:06;;;;;;;18.25;7.57;;;1.40;99.90;;;;;;4863335;29;20136;-91
2023/02/10 07:13:31;;;;;;;12.48;5.70;;;1.40;99.90;;;;;;4862790;29;20140;-90
2023/02/10 07:15:58;;;;;;;18.48;7.93;;;1.40;99.90;;;;;;4863528;29;20056;-90
2023/02/10 07:18:23;;;;;;;15.75;7.55;;;1.40;99.90;;;;;;4863999;29;20045;-91
2023/02/10 07:20:49;;;;;;;17.67;7.88;;;1.40;99.90;;;;;;4863439;29;20096;-90
2023/02/10 07:23:15;;;;;;;12.45;6.43;;;1.40;99.90;;;;;;4864031;29;20096;-90
2023/02/10 07:25:41;;;;;;;19.38;9.05;;;1.40;99.90;;;;;;4863741;29;20566;-89
2023/02/10 07:28:08;;;;;;;15.85;6.97;;;1.40;99.90;;;;;;4879668;29;20053;-89
2023/02/10 07:30:33;;;;;;;22.58;8.98;;;1.40;99.90;;;;;;4863297;29;20087;-90
2023/02/10 07:32:59;;;;;;;17.38;8.23;;;1.40;99.90;;;;;;4879513;29;20081;-89
2023/02/10 07:35:25;;;;;;;23.92;9.63;;;1.40;99.90;;;;;;4879737;29;20045;-90
2023/02/10 07:37:51;;;;;;;21.70;9.13;;;1.50;99.90;;;;;;4863866;29;20045;-90
2023/02/10 07:40:16;;;;;;;18.35;8.30;;;1.50;99.90;;;;;;4863699;29;20069;-90
2023/02/10 07:42:42;;;;;;;25.90;9.50;;;1.50;99.90;;;;;;4866945;29;20078;-90
2023/02/10 07:45:08;;;;;;;14.93;7.00;;;1.50;99.90;;;;;;4867493;29;20060;-90
2023/02/10 07:47:40;;;;;;;18.02;7.68;;;1.50;99.90;;;;;;4867370;29;20041;-94
2023/02/10 07:50:12;;;;;;;14.13;7.28;;;1.50;99.90;;;;;;4856850;24;20088;-93
2023/02/10 07:52:38;;;;;;;15.48;7.88;;;1.50;99.90;;;;;;4848113;29;20495;-92
2023/02/10 07:55:16;;;;;;;19.42;7.93;;;1.50;99.90;;;;;;4857773;29;20045;-92
2023/02/10 07:57:48;;;;;;;18.90;8.13;;;1.50;99.90;;;;;;4892535;24;20061;-93
2023/02/10 08:00:16;;;;;;;17.13;6.97;;;1.40;99.90;;;;;;4876320;29;20079;-92
2023/02/10 08:03:00;;;;;;;15.10;7.28;;;1.40;99.90;;;;;;4896220;29;20045;-93
2023/02/10 08:05:30;;;;;;;25.95;10.88;;;1.50;99.90;;;;;;4904907;23;20079;-93
2023/02/10 08:07:59;;;;;;;20.50;9.50;;;1.50;99.90;;;;;;4876537;29;20049;-93
2023/02/10 08:10:25;;;;;;;21.02;10.05;;;1.50;99.90;;;;;;4859037;29;20059;-93
2023/02/10 08:12:50;;;;;;;22.13;10.25;;;1.50;99.90;;;;;;4869424;29;20053;-92
2023/02/10 08:15:25;;;;;;;24.83;9.98;;;1.50;99.90;;;;;;4871055;29;20127;-93
2023/02/10 08:17:59;;;;;;;25.23;10.63;;;1.50;99.90;;;;;;4861500;29;20520;-92
2023/02/10 08:20:35;;;;;;;;;;;;;;;;;;;;;
2023/02/10 08:23:17;;;;;;;27.42;12.35;;;1.70;99.90;;;;;;4863644;29;20173;-91
2023/02/10 08:25:43;;;;;;;25.00;11.45;;;1.60;99.90;;;;;;4849830;29;20049;-93
2023/02/10 08:28:12;;;;;;;38.42;14.82;;;1.70;99.90;;;;;;4865366;29;20049;-93
2023/02/10 08:30:58;;;;;;;29.90;13.23;;;1.80;99.90;;;;;;4864447;29;20554;-92
2023/02/10 08:33:24;;;;;;;24.00;12.75;;;1.80;99.90;;;;;;4880031;29;20080;-92
2023/02/10 08:35:50;;;;;;;25.65;11.70;;;1.80;99.90;;;;;;4883757;29;20413;-90
2023/02/10 08:38:15;;;;;;;21.25;9.60;;;1.90;99.90;;;;;;4867092;29;20052;-89
2023/02/10 08:41:02;;;;;;;29.80;15.02;;;1.90;99.90;;;;;;4865809;29;20079;-89
2023/02/10 08:43:30;;;;;;;32.53;14.27;;;2.00;99.90;;;;;;4864778;29;20048;-90
2023/02/10 08:45:58;;;;;;;33.95;15.70;;;2.10;99.90;;;;;;4865604;29;20045;-90
2023/02/10 08:48:34;;;;;;;30.10;13.38;;;2.10;99.90;;;;;;4865844;29;20073;-89
2023/02/10 08:50:59;;;;;;;25.95;11.77;;;2.10;99.90;;;;;;4889056;23;20041;-89
2023/02/10 08:53:29;;;;;;;29.67;13.52;;;2.10;99.90;;;;;;4878829;29;20061;-90
2023/02/10 08:56:09;;;;;;;28.45;12.80;;;2.20;99.90;;;;;;4865395;29;20041;-91
2023/02/10 08:58:47;;;;;;;25.42;12.27;;;2.20;99.90;;;;;;4865009;29;20383;-91
2023/02/10 09:01:28;;;;;;;27.70;12.00;;;2.30;99.90;;;;;;4865128;29;20045;-88
2023/02/10 09:03:56;;;;;;;21.63;11.93;;;2.30;99.90;;;;;;4865031;29;20104;-88
2023/02/10 09:06:28;;;;;;;33.13;15.30;;;2.40;99.90;;;;;;4864170;29;20080;-89
2023/02/10 09:08:54;;;;;;;26.33;12.57;;;2.40;99.90;;;;;;4865614;29;20057;-89
2023/02/10 09:11:27;;;;;;;35.38;14.80;;;2.40;99.90;;;;;;4881267;29;20037;-88
2023/02/10 09:16:39;;;;;;;32.95;15.73;;;2.50;99.90;;;;;;4904931;23;20113;-91
2023/02/10 09:19:05;;;;;;;39.78;17.42;;;2.60;99.90;;;;;;4879819;29;20473;-89
2023/02/10 09:21:39;;;;;;;31.25;15.43;;;2.60;99.90;;;;;;4865063;29;20053;-90
2023/02/10 09:24:08;;;;;;;31.77;14.88;;;2.70;99.90;;;;;;4873872;29;20374;-89
2023/02/10 09:26:44;;;;;;;33.80;13.80;;;2.80;99.90;;;;;;4900100;29;20489;-89
2023/02/10 09:31:41;;;;;;;29.20;13.75;;;2.80;99.90;;;;;;4886882;23;20072;-91
2023/02/10 09:34:09;;;;;;;34.60;13.75;;;2.90;99.90;;;;;;4864105;29;20501;-91
2023/02/10 09:36:34;;;;;;;38.15;16.38;;;2.90;99.90;;;;;;4862101;29;20073;-90
2023/02/10 09:39:00;;;;;;;41.28;18.88;;;3.00;99.90;;;;;;4881393;29;20076;-91
2023/02/10 09:41:45;;;;;;;39.67;17.17;;;3.00;99.90;;;;;;4863671;29;20037;-89
2023/02/10 09:44:25;;;;;;;34.58;16.17;;;3.10;99.90;;;;;;4881988;29;20058;-90
2023/02/10 09:47:09;;;;;;;44.63;18.77;;;3.20;99.90;;;;;;4881081;29;20081;-89
2023/02/10 09:50:04;;;;;;;33.03;16.50;;;3.30;99.90;;;;;;4864340;29;20060;-90
2023/02/10 09:52:52;;;;;;;39.63;16.70;;;3.30;99.90;;;;;;4868833;29;20050;-90
2023/02/10 09:55:26;;;;;;;36.97;17.20;;;3.40;99.90;;;;;;4861555;29;20053;-91
2023/02/10 09:58:17;;;;;;;41.70;18.33;;;3.50;99.90;;;;;;4863289;29;20499;-90
2023/02/10 10:00:55;;;;;;;32.85;17.08;;;3.60;99.90;;;;;;4817915;29;20053;-92
2023/02/10 10:04:01;;;;;;;32.42;15.57;;;3.60;99.90;;;;;;4862885;29;20491;-89
2023/02/10 10:06:38;;;;;;;33.35;16.85;;;3.70;99.90;;;;;;4835048;29;20050;-90
2023/02/10 10:09:10;;;;;;;37.85;16.13;;;3.70;99.90;;;;;;4854901;29;20053;-89
2023/02/10 10:11:46;;;;;;;31.02;15.95;;;3.80;99.90;;;;;;4863530;29;20109;-91
2023/02/10 10:14:17;;;;;;;43.33;18.42;;;3.80;99.90;;;;;;4872397;29;20091;-90
2023/02/10 10:17:20;;;;;;;37.95;17.15;;;3.90;99.90;;;;;;4881087;29;20049;-89
2023/02/10 10:19:58;;;;;;;44.30;16.60;;;4.00;99.90;;;;;;4864562;29;20052;-93
2023/02/10 10:22:43;;;;;;;36.15;16.88;;;4.10;99.90;;;;;;4870471;29;20053;-91
2023/02/10 10:25:15;;;;;;;39.50;16.83;;;4.10;99.90;;;;;;4846310;29;20045;-91
2023/02/10 10:28:02;;;;;;;38.55;16.35;;;4.30;99.90;;;;;;4869531;29;20080;-90
2023/02/10 10:30:51;;;;;;;36.97;15.70;;;4.30;99.90;;;;;;4869538;29;20058;-90
2023/02/10 10:33:39;;;;;;;39.38;15.68;;;4.40;99.90;;;;;;4845002;29;20061;-89
2023/02/10 10:36:11;;;;;;;33.70;15.07;;;4.50;99.90;;;;;;4845161;29;20049;-92
2023/02/10 10:38:43;;;;;;;36.90;15.07;;;4.60;99.90;;;;;;4845855;29;20053;-91
2023/02/10 10:41:13;;;;;;;35.63;15.45;;;4.60;99.90;;;;;;4876052;29;20490;-90
2023/02/10 10:43:53;;;;;;;37.40;14.93;;;4.70;99.90;;;;;;4845628;29;20052;-94
2023/02/10 10:46:31;;;;;;;34.30;15.35;;;4.80;99.90;;;;;;4864053;29;20132;-95
2023/02/10 10:48:57;;;;;;;37.40;16.60;;;4.90;99.90;;;;;;4849798;29;20092;-94
2023/02/10 10:51:23;;;;;;;33.40;15.60;;;4.90;99.90;;;;;;4846884;29;20045;-94
2023/02/10 10:53:48;;;;;;;35.17;14.88;;;5.00;99.90;;;;;;4863517;29;20045;-94
2023/02/10 10:56:59;;;;;;;33.95;14.68;;;5.10;99.90;;;;;;4846599;29;20060;-94
2023/02/10 10:59:41;;;;;;;32.65;14.98;;;5.20;99.90;;;;;;4835897;29;20057;-94
2023/02/10 11:02:21;;;;;;;33.65;14.27;;;5.20;99.90;;;;;;4863598;29;20038;-94
2023/02/10 11:05:11;;;;;;;31.13;14.63;;;5.40;99.90;;;;;;4857304;29;20057;-94
2023/02/10 11:07:38;;;;;;;38.17;15.13;;;5.50;99.90;;;;;;4881397;29;20052;-94
2023/02/10 11:10:05;;;;;;;33.67;13.82;;;5.50;99.90;;;;;;4871259;29;20045;-93
2023/02/10 11:12:37;;;;;;;33.58;13.70;;;5.60;99.90;;;;;;4864746;29;20144;-93
2023/02/10 11:15:25;;;;;;;30.63;13.30;;;5.70;99.90;;;;;;4880177;29;20052;-93
2023/02/10 11:17:51;;;;;;;33.30;13.82;;;5.80;99.90;;;;;;4849495;29;20056;-91
2023/02/10 11:20:32;;;;;;;39.13;13.10;;;5.80;99.90;;;;;;4847702;29;20451;-92
2023/02/10 11:23:11;;;;;;;28.40;12.13;;;5.90;99.90;;;;;;4859739;29;20052;-90
2023/02/10 11:25:37;;;;;;;29.52;12.13;;;6.00;99.90;;;;;;4853555;29;20049;-89
2023/02/10 11:28:05;;;;;;;31.63;11.43;;;6.10;99.90;;;;;;4845424;29;20041;-89
2023/02/10 11:30:37;;;;;;;31.25;12.68;;;6.10;99.90;;;;;;4877530;29;20056;-91
2023/02/10 11:33:06;;;;;;;26.02;12.15;;;6.20;99.90;;;;;;4863309;29;20045;-90
2023/02/10 11:35:34;;;;;;;32.47;11.77;;;6.30;99.90;;;;;;4864869;29;20045;-89
2023/02/10 11:38:05;;;;;;;25.73;11.90;;;6.40;99.90;;;;;;4863701;29;20179;-90
2023/02/10 11:40:56;;;;;;;26.95;12.07;;;6.40;99.90;;;;;;4880901;29;20060;-90
2023/02/10 11:43:38;;;;;;;31.33;11.38;;;6.50;99.90;;;;;;4864672;29;20049;-89
2023/02/10 11:46:08;;;;;;;34.78;10.32;;;6.60;99.90;;;;;;4862358;29;20193;-90
2023/02/10 11:48:34;;;;;;;29.92;9.98;;;6.60;99.90;;;;;;4880480;29;20519;-88
2023/02/10 11:51:17;;;;;;;26.17;9.90;;;6.70;99.90;;;;;;4864162;29;20518;-89
2023/02/10 11:53:45;;;;;;;26.20;10.20;;;6.70;99.90;;;;;;4877785;29;20089;-89
2023/02/10 11:59:42;;;;;;;30.02;9.55;;;6.90;99.90;;;;;;4863437;29;20049;-89
2023/02/10 12:02:22;;;;;;;27.15;9.85;;;7.00;99.90;;;;;;4863553;29;20080;-89
2023/02/10 12:05:16;;;;;;;20.73;9.27;;;7.00;99.90;;;;;;4879812;29;20489;-88
2023/02/10 12:07:50;;;;;;;29.30;11.90;;;7.10;99.90;;;;;;4863778;29;20084;-87
2023/02/10 12:10:33;;;;;;;25.20;10.20;;;7.10;99.90;;;;;;4867653;29;20037;-93
2023/02/10 12:13:22;;;;;;;25.50;9.75;;;7.20;99.90;;;;;;4846394;29;20490;-93
2023/02/10 12:16:02;;;;;;;62.83;29.42;;;7.30;99.90;;;;;;4851599;29;20061;-94
2023/02/10 12:18:52;;;;;;;39.28;19.40;;;7.30;99.90;;;;;;4864951;29;20106;-92
2023/02/10 12:21:38;;;;;;;27.00;10.65;;;7.30;99.90;;;;;;4854924;29;20074;-93
2023/02/10 12:24:15;;;;;;;28.95;11.52;;;7.30;99.90;;;;;;4863233;29;20451;-92
2023/02/10 12:26:48;;;;;;;42.78;20.52;;;7.30;99.90;;;;;;4856022;29;20087;-90
2023/02/10 12:29:20;;;;;;;;;;;7.40;99.90;;;;;;4853579;29;20443;-91
2023/02/10 12:32:12;;;;;;;26.10;9.82;;;7.40;99.90;;;;;;4860166;29;19931;-90
2023/02/10 12:34:48;;;;;;;26.85;10.73;;;7.40;99.90;;;;;;4854774;29;20057;-91
2023/02/10 12:37:23;;;;;;;38.58;16.92;;;7.40;99.90;;;;;;4875850;29;20045;-90
2023/02/10 12:40:01;;;;;;;26.48;9.45;;;7.40;99.90;;;;;;4866180;29;20049;-92
2023/02/10 12:42:52;;;;;;;22.05;7.63;;;7.50;99.90;;;;;;4857814;29;20532;-92
2023/02/10 12:45:31;;;;;;;19.80;7.30;;;7.50;99.90;;;;;;4875980;29;20059;-92
2023/02/10 12:48:06;;;;;;;22.15;7.00;;;7.50;99.90;;;;;;4876393;29;20128;-94
2023/02/10 12:50:44;;;;;;;18.67;6.43;;;7.60;99.90;;;;;;4853939;29;20052;-91
2023/02/10 12:53:22;;;;;;;24.38;5.93;;;7.60;99.90;;;;;;4869713;29;20041;-92
2023/02/10 12:56:02;;;;;;;19.27;6.32;;;7.60;99.90;;;;;;4853276;29;20056;-91
2023/02/10 12:58:45;;;;;;;25.98;5.90;;;7.60;99.90;;;;;;4862902;29;20427;-92
2023/02/10 13:01:34;;;;;;;20.80;6.10;;;7.60;99.90;;;;;;4882457;29;20052;-92
2023/02/10 13:04:27;;;;;;;18.75;6.80;;;7.60;99.90;;;;;;4866013;29;20088;-94
2023/02/10 13:07:00;;;;;;;19.75;6.28;;;7.60;99.90;;;;;;4853819;29;20057;-94
2023/02/10 13:09:34;;;;;;;20.33;6.18;;;7.60;99.90;;;;;;4863755;29;20084;-89
2023/02/10 13:12:07;;;;;;;22.63;9.25;;;7.60;99.90;;;;;;4863659;29;20049;-89
2023/02/10 13:14:34;;;;;;;;;;;7.60;99.90;;;;;;4856941;29;20081;-89
2023/02/10 13:17:00;;;;;;;22.65;6.38;;;7.60;99.90;;;;;;4862205;29;20026;-89
2023/02/10 13:19:43;;;;;;;23.75;6.82;;;7.70;99.90;;;;;;4857193;29;20478;-89
2023/02/10 13:22:13;;;;;;;;;;;7.80;99.90;;;;;;4865727;29;20393;-88
2023/02/10 13:25:08;;;;;;;26.50;6.53;;;7.70;99.90;;;;;;4873346;29;19924;-91
2023/02/10 13:27:55;;;;;;;23.63;7.15;;;7.80;99.90;;;;;;4846895;29;20056;-90